Time;durP1;ratioP1;P1;durP2;ratioP2;P2;SDS_P1;SDS_P2;PMS_P1;PMS_P2;Temp;Humidity;BMP_temperature;BMP_pressure;BME280_temperature;BME280_humidity;BME280_pressure;Samples;Min_cycle;Max_cycle;Signal;HPM_P1;HPM_P2
2022/05/18 00:00:51;;;;;;;5.97;2.03;;;21.30;68.80;;;;;;5071484;28;20048;-93
2022/05/18 00:03:35;;;;;;;11.32;2.28;;;21.20;68.90;;;;;;5071924;28;20076;-92
2022/05/18 00:06:04;;;;;;;6.70;2.55;;;21.20;69.10;;;;;;5055873;28;20468;-93
2022/05/18 00:08:36;;;;;;;9.05;2.28;;;21.20;69.20;;;;;;5072120;28;20061;-93
2022/05/18 00:11:13;;;;;;;7.38;2.00;;;21.20;69.30;;;;;;5071831;28;20059;-94
2022/05/18 00:13:41;;;;;;;5.53;1.90;;;21.10;69.50;;;;;;5075602;28;20495;-93
2022/05/18 00:16:08;;;;;;;5.63;2.28;;;21.10;69.50;;;;;;5075022;28;20048;-94
2022/05/18 00:18:35;;;;;;;6.43;2.15;;;21.10;69.60;;;;;;5075191;28;20553;-92
2022/05/18 00:21:04;;;;;;;6.20;2.08;;;21.10;69.70;;;;;;5074709;28;20110;-93
2022/05/18 00:23:31;;;;;;;7.93;2.40;;;21.10;69.80;;;;;;5075489;28;20098;-92
2022/05/18 00:25:58;;;;;;;4.15;2.22;;;21.10;70.00;;;;;;5073965;28;20454;-92
2022/05/18 00:28:25;;;;;;;6.18;2.20;;;21.10;70.10;;;;;;5067273;28;20056;-92
2022/05/18 00:30:52;;;;;;;8.05;2.28;;;21.00;70.20;;;;;;5075068;28;20048;-91
2022/05/18 00:33:20;;;;;;;6.32;2.33;;;21.10;70.20;;;;;;5074979;28;20090;-92
2022/05/18 00:35:47;;;;;;;7.20;2.17;;;21.00;70.40;;;;;;5074863;28;20568;-92
2022/05/18 00:38:14;;;;;;;8.38;2.10;;;21.00;70.50;;;;;;5075510;28;20098;-91
2022/05/18 00:40:46;;;;;;;5.50;2.20;;;21.00;70.60;;;;;;5074716;28;20090;-93
2022/05/18 00:43:48;;;;;;;5.20;1.90;;;21.00;70.60;;;;;;5074762;28;20044;-93
2022/05/18 00:46:15;;;;;;;6.70;2.28;;;20.90;70.80;;;;;;5065756;28;20110;-93
2022/05/18 00:48:50;;;;;;;4.15;1.73;;;20.90;70.80;;;;;;5074543;28;20044;-93
2022/05/18 00:51:27;;;;;;;6.53;2.30;;;20.90;71.00;;;;;;5074938;28;20102;-93
2022/05/18 00:54:22;;;;;;;4.50;2.08;;;20.90;71.10;;;;;;5074792;28;20048;-93
2022/05/18 00:57:07;;;;;;;6.50;2.17;;;20.90;71.30;;;;;;5073230;28;20090;-92
2022/05/18 00:59:44;;;;;;;5.75;2.15;;;20.90;71.30;;;;;;5071359;28;20049;-93
2022/05/18 01:02:12;;;;;;;5.95;2.22;;;20.90;71.40;;;;;;5075034;28;20056;-92
2022/05/18 01:04:46;;;;;;;5.93;2.30;;;20.90;71.50;;;;;;5073974;28;20106;-93
2022/05/18 01:07:18;;;;;;;5.38;1.98;;;20.80;71.60;;;;;;5074133;28;20057;-92
2022/05/18 01:09:47;;;;;;;4.72;2.08;;;20.90;71.70;;;;;;5074458;28;20052;-93
2022/05/18 01:12:18;;;;;;;5.28;2.10;;;20.80;71.80;;;;;;5074435;28;20040;-92
2022/05/18 01:14:47;;;;;;;8.00;2.17;;;20.80;71.90;;;;;;5074727;28;20045;-94
2022/05/18 01:17:17;;;;;;;5.30;2.20;;;20.80;71.90;;;;;;5074838;28;20040;-93
2022/05/18 01:19:51;;;;;;;7.13;2.13;;;20.80;72.00;;;;;;5073813;28;20053;-93
2022/05/18 01:22:32;;;;;;;6.05;1.95;;;20.80;72.10;;;;;;5074295;28;20052;-94
2022/05/18 01:25:27;;;;;;;6.10;2.13;;;20.70;72.10;;;;;;5073696;28;20737;-94
2022/05/18 01:27:56;;;;;;;5.57;2.28;;;20.70;72.20;;;;;;5074342;28;20044;-94
2022/05/18 01:30:24;;;;;;;4.50;2.05;;;20.70;72.30;;;;;;5074091;28;20049;-93
2022/05/18 01:32:54;;;;;;;6.63;2.10;;;20.70;72.30;;;;;;5072933;28;20044;-93
2022/05/18 01:35:26;;;;;;;7.35;2.30;;;20.60;72.40;;;;;;5074601;28;20053;-93
2022/05/18 01:37:59;;;;;;;5.88;2.40;;;20.60;72.50;;;;;;5074164;28;20052;-92
2022/05/18 01:40:33;;;;;;;;;;;20.60;72.50;;;;;;5074017;28;20494;-94
2022/05/18 01:43:15;;;;;;;4.60;2.38;;;20.60;72.60;;;;;;5073870;28;19921;-94
2022/05/18 01:45:42;;;;;;;4.15;2.10;;;20.60;72.70;;;;;;5073665;28;20052;-93
2022/05/18 01:48:15;;;;;;;4.75;2.30;;;20.50;72.70;;;;;;5073390;28;20490;-94
2022/05/18 01:50:43;;;;;;;5.20;2.45;;;20.50;72.80;;;;;;5074167;28;20110;-94
2022/05/18 01:53:10;;;;;;;9.25;2.28;;;20.50;72.80;;;;;;5072042;28;20502;-93
2022/05/18 01:55:37;;;;;;;5.78;2.20;;;20.50;72.90;;;;;;5073724;28;20109;-93
2022/05/18 01:58:06;;;;;;;7.22;2.55;;;20.40;72.90;;;;;;5073461;28;20086;-93
2022/05/18 02:00:33;;;;;;;6.80;2.50;;;20.40;73.00;;;;;;5073547;28;20102;-92
2022/05/18 02:03:00;;;;;;;6.60;2.40;;;20.40;73.00;;;;;;5073512;28;20104;-94
2022/05/18 02:05:27;;;;;;;9.05;2.42;;;20.40;73.10;;;;;;5074255;28;20117;-93
2022/05/18 02:07:54;;;;;;;6.50;2.40;;;20.30;73.10;;;;;;5073049;28;20107;-94
2022/05/18 02:10:21;;;;;;;5.93;2.30;;;20.30;73.20;;;;;;5073296;28;20048;-93
2022/05/18 02:12:48;;;;;;;5.95;2.45;;;20.20;73.20;;;;;;5073163;28;20094;-93
2022/05/18 02:15:14;;;;;;;10.73;2.80;;;20.20;73.20;;;;;;5073858;28;20097;-94
2022/05/18 02:17:41;;;;;;;7.60;3.03;;;20.10;73.20;;;;;;5073297;28;20078;-93
2022/05/18 02:20:09;;;;;;;6.93;2.53;;;20.10;73.30;;;;;;5073440;28;20056;-93
2022/05/18 02:22:36;;;;;;;10.93;3.00;;;20.10;73.30;;;;;;5073278;28;20053;-94
2022/05/18 02:25:04;;;;;;;8.40;2.97;;;20.00;73.40;;;;;;5069271;28;20098;-94
2022/05/18 02:27:30;;;;;;;9.30;3.03;;;20.00;73.40;;;;;;5073308;28;20048;-93
2022/05/18 02:29:57;;;;;;;7.65;2.70;;;19.90;73.40;;;;;;5056797;28;20045;-92
2022/05/18 02:32:24;;;;;;;7.80;2.92;;;19.90;73.40;;;;;;5073209;28;20048;-93
2022/05/18 02:34:51;;;;;;;10.73;3.03;;;19.80;73.50;;;;;;5071907;28;20052;-94
2022/05/18 02:37:18;;;;;;;7.13;3.10;;;19.80;73.50;;;;;;5072865;28;20102;-92
2022/05/18 02:39:45;;;;;;;7.47;2.92;;;19.80;73.50;;;;;;5071846;28;20056;-92
2022/05/18 02:42:12;;;;;;;6.78;2.78;;;19.70;73.60;;;;;;5072667;28;20044;-92
2022/05/18 02:44:39;;;;;;;9.65;3.25;;;19.70;73.60;;;;;;5073513;28;20053;-92
2022/05/18 02:47:06;;;;;;;8.52;2.95;;;19.60;73.60;;;;;;5073184;28;20048;-93
2022/05/18 02:49:33;;;;;;;6.70;3.03;;;19.50;73.70;;;;;;5072370;28;20084;-93
2022/05/18 02:52:00;;;;;;;8.77;3.45;;;19.50;73.70;;;;;;5071479;28;20502;-93
2022/05/18 02:57:14;;;;;;;6.95;3.20;;;19.40;73.80;;;;;;5017334;28;20041;-93
2022/05/18 02:59:43;;;;;;;6.90;3.42;;;19.40;73.80;;;;;;5030639;28;20049;-93
2022/05/18 03:02:10;;;;;;;8.20;3.05;;;19.40;73.80;;;;;;5024386;28;20132;-92
2022/05/18 03:04:36;;;;;;;13.85;3.75;;;19.40;73.80;;;;;;5031573;28;20172;-91
2022/05/18 03:07:04;;;;;;;6.88;3.30;;;19.30;73.90;;;;;;5026574;28;20046;-92
2022/05/18 03:09:31;;;;;;;10.10;3.72;;;19.30;73.90;;;;;;5018855;28;20046;-92
2022/05/18 03:11:58;;;;;;;10.02;3.22;;;19.20;73.90;;;;;;5030529;28;20092;-92
2022/05/18 03:14:25;;;;;;;7.47;3.50;;;19.20;73.90;;;;;;5018584;28;20416;-92
2022/05/18 03:16:52;;;;;;;7.88;3.70;;;19.10;73.90;;;;;;5019339;28;20053;-93
2022/05/18 03:19:20;;;;;;;9.32;3.70;;;19.10;73.90;;;;;;5018706;28;20461;-92
2022/05/18 03:24:32;;;;;;;8.23;3.60;;;19.00;74.00;;;;;;5030290;28;20050;-94
2022/05/18 03:26:59;;;;;;;7.90;3.70;;;19.00;74.00;;;;;;5014594;28;20074;-94
2022/05/18 03:29:26;;;;;;;6.97;3.50;;;18.90;74.00;;;;;;5030157;28;20392;-93
2022/05/18 03:31:53;;;;;;;10.15;3.88;;;18.90;74.00;;;;;;5029744;28;20104;-92
2022/05/18 03:34:20;;;;;;;10.02;3.67;;;18.90;74.00;;;;;;5049760;28;20506;-92
2022/05/18 03:36:47;;;;;;;8.05;3.45;;;18.80;74.00;;;;;;5071013;28;20114;-93
2022/05/18 03:39:15;;;;;;;9.07;3.30;;;18.80;74.00;;;;;;5072315;28;20037;-92
2022/05/18 03:41:43;;;;;;;6.93;2.80;;;18.80;74.10;;;;;;5071900;28;20048;-92
2022/05/18 03:44:10;;;;;;;7.60;3.58;;;18.70;74.10;;;;;;5071884;28;20055;-92
2022/05/18 03:46:37;;;;;;;7.50;3.25;;;18.70;74.10;;;;;;5073187;28;20082;-92
2022/05/18 03:49:04;;;;;;;7.20;3.25;;;18.70;74.10;;;;;;5075965;28;20127;-92
2022/05/18 03:51:31;;;;;;;8.88;3.50;;;18.60;74.10;;;;;;5075887;28;20049;-93
2022/05/18 03:53:59;;;;;;;6.68;3.45;;;18.60;74.10;;;;;;5058642;28;20044;-93
2022/05/18 03:56:26;;;;;;;6.45;3.25;;;18.60;74.10;;;;;;5075254;28;20052;-92
2022/05/18 03:58:53;;;;;;;7.32;3.60;;;18.50;74.00;;;;;;5075513;28;20086;-92
2022/05/18 04:01:20;;;;;;;9.18;4.00;;;18.50;74.00;;;;;;5075687;28;20574;-91
2022/05/18 04:03:48;;;;;;;8.35;3.90;;;18.50;74.00;;;;;;5075766;28;20094;-92
2022/05/18 04:06:15;;;;;;;7.70;3.30;;;18.50;74.00;;;;;;5075635;28;20115;-91
2022/05/18 04:08:42;;;;;;;9.10;3.33;;;18.50;74.00;;;;;;5075543;28;20098;-93
2022/05/18 04:11:10;;;;;;;7.03;3.40;;;18.40;74.00;;;;;;5075931;28;20053;-92
2022/05/18 04:13:37;;;;;;;7.85;3.65;;;18.40;74.00;;;;;;5075260;28;20044;-93
2022/05/18 04:16:05;;;;;;;6.60;3.03;;;18.40;74.00;;;;;;5075263;28;20564;-93
2022/05/18 04:18:32;;;;;;;7.18;3.63;;;18.40;74.00;;;;;;5075457;28;20044;-91
2022/05/18 04:21:00;;;;;;;7.00;3.22;;;18.30;74.00;;;;;;5059252;28;20068;-93
2022/05/18 04:23:28;;;;;;;8.27;3.55;;;18.30;74.00;;;;;;5072431;28;20048;-91
2022/05/18 04:25:55;;;;;;;15.65;3.70;;;18.30;74.00;;;;;;5075247;28;20056;-93
2022/05/18 04:28:22;;;;;;;7.47;3.80;;;18.30;74.00;;;;;;5074979;28;20053;-92
2022/05/18 04:30:50;;;;;;;7.63;3.42;;;18.20;74.00;;;;;;5074853;28;20456;-91
2022/05/18 04:33:19;;;;;;;7.32;3.85;;;18.20;73.90;;;;;;5074938;28;20517;-92
2022/05/18 04:35:48;;;;;;;6.13;3.33;;;18.20;74.00;;;;;;5075175;28;20044;-93
2022/05/18 04:38:16;;;;;;;7.40;3.55;;;18.20;74.00;;;;;;5075840;28;20067;-93
2022/05/18 04:40:47;;;;;;;7.45;3.20;;;18.10;74.00;;;;;;5074476;28;20049;-93
2022/05/18 04:43:17;;;;;;;6.70;3.50;;;18.10;74.00;;;;;;5074827;28;20049;-91
2022/05/18 04:45:47;;;;;;;8.43;3.70;;;18.10;74.00;;;;;;5074847;28;20055;-93
2022/05/18 04:48:19;;;;;;;8.07;3.50;;;18.00;74.00;;;;;;5074868;28;20473;-95
2022/05/18 04:50:49;;;;;;;6.78;3.10;;;18.00;74.00;;;;;;5075014;28;20169;-92
2022/05/18 04:53:18;;;;;;;8.30;4.00;;;18.00;74.00;;;;;;5075283;28;20048;-91
2022/05/18 04:55:45;;;;;;;12.15;3.40;;;18.00;74.00;;;;;;5074272;28;20052;-94
2022/05/18 04:58:12;;;;;;;7.38;3.22;;;18.00;74.00;;;;;;5073038;28;20040;-92
2022/05/18 05:00:39;;;;;;;7.25;3.33;;;17.90;74.00;;;;;;5074633;28;20052;-92
2022/05/18 05:03:07;;;;;;;8.80;3.33;;;17.90;74.00;;;;;;5074621;28;20055;-94
2022/05/18 05:05:34;;;;;;;6.07;3.35;;;17.90;74.10;;;;;;5074604;28;20064;-93
2022/05/18 05:08:01;;;;;;;6.20;3.30;;;17.90;74.10;;;;;;5074530;28;20044;-92
2022/05/18 05:10:28;;;;;;;9.63;3.22;;;17.90;74.10;;;;;;5074014;28;20102;-92
2022/05/18 05:12:55;;;;;;;5.85;3.08;;;17.90;74.10;;;;;;5074232;28;20043;-91
2022/05/18 05:15:22;;;;;;;8.60;3.25;;;17.90;74.10;;;;;;5074547;28;20110;-91
2022/05/18 05:17:50;;;;;;;9.45;3.63;;;17.90;74.10;;;;;;5072515;28;20052;-93
2022/05/18 05:20:17;;;;;;;8.50;3.78;;;17.90;74.10;;;;;;5072018;28;20469;-93
2022/05/18 05:22:44;;;;;;;6.30;3.10;;;17.90;74.10;;;;;;5073306;28;20056;-91
2022/05/18 05:25:14;;;;;;;6.15;3.40;;;17.90;74.10;;;;;;5073520;28;20041;-92
2022/05/18 05:27:41;;;;;;;6.25;2.92;;;17.90;74.20;;;;;;5073461;28;20470;-92
2022/05/18 05:30:09;;;;;;;8.93;2.92;;;17.80;74.20;;;;;;5073590;28;20094;-92
2022/05/18 05:32:36;;;;;;;5.75;3.25;;;17.80;74.20;;;;;;5073486;28;20510;-93
2022/05/18 05:35:03;;;;;;;8.57;2.90;;;17.80;74.20;;;;;;5073874;28;20124;-91
2022/05/18 05:37:30;;;;;;;7.35;3.08;;;17.80;74.20;;;;;;5072867;28;20110;-92
2022/05/18 05:39:57;;;;;;;6.38;2.63;;;17.80;74.30;;;;;;5072818;28;20526;-91
2022/05/18 05:42:24;;;;;;;6.95;3.42;;;17.80;74.30;;;;;;5073332;28;20045;-91
2022/05/18 05:44:51;;;;;;;7.40;3.70;;;17.70;74.30;;;;;;5073471;28;20053;-92
2022/05/18 05:47:18;;;;;;;6.20;2.92;;;17.70;74.30;;;;;;5073940;28;20110;-91
2022/05/18 05:49:45;;;;;;;7.32;3.30;;;17.70;74.30;;;;;;5071020;28;20033;-91
2022/05/18 05:52:12;;;;;;;8.30;2.80;;;17.80;74.40;;;;;;5075228;28;20094;-90
2022/05/18 05:54:39;;;;;;;8.43;3.08;;;17.70;74.40;;;;;;5073128;28;20040;-91
2022/05/18 05:57:06;;;;;;;7.68;2.95;;;17.70;74.40;;;;;;5068695;28;20049;-92
2022/05/18 05:59:36;;;;;;;4.50;2.40;;;17.80;74.40;;;;;;5053690;28;20106;-92
2022/05/18 06:02:07;;;;;;;6.80;2.72;;;17.80;74.40;;;;;;5074004;28;20130;-93
2022/05/18 06:04:36;;;;;;;8.20;2.55;;;17.80;74.40;;;;;;5077013;28;20044;-91
2022/05/18 06:07:04;;;;;;;6.05;2.55;;;17.80;74.40;;;;;;5073541;28;20406;-91
2022/05/18 06:09:31;;;;;;;9.00;2.70;;;17.80;74.40;;;;;;5073758;28;20055;-92
2022/05/18 06:11:58;;;;;;;7.82;2.85;;;17.90;74.40;;;;;;5069223;28;20102;-90
2022/05/18 06:14:25;;;;;;;7.03;2.30;;;17.90;74.30;;;;;;5077662;28;20102;-91
2022/05/18 06:16:51;;;;;;;6.93;2.78;;;17.90;74.30;;;;;;5073217;28;20048;-90
2022/05/18 06:19:19;;;;;;;8.20;2.50;;;17.90;74.30;;;;;;5072771;28;20102;-90
2022/05/18 06:21:50;;;;;;;10.20;2.65;;;17.90;74.20;;;;;;5065853;28;20041;-92
2022/05/18 06:24:19;;;;;;;8.82;2.50;;;18.00;74.20;;;;;;5084131;28;20098;-92
2022/05/18 06:26:46;;;;;;;6.80;2.13;;;18.00;74.20;;;;;;5071873;28;20047;-92
2022/05/18 06:29:13;;;;;;;6.47;2.60;;;18.00;74.10;;;;;;5077124;28;20056;-92
2022/05/18 06:31:41;;;;;;;6.85;2.22;;;18.10;74.00;;;;;;5074134;28;20465;-91
2022/05/18 06:34:08;;;;;;;4.88;1.88;;;18.10;74.00;;;;;;5074329;28;20049;-92
2022/05/18 06:36:35;;;;;;;3.88;2.03;;;18.20;73.90;;;;;;5064487;28;20052;-91
2022/05/18 06:39:03;;;;;;;4.20;1.70;;;18.20;73.80;;;;;;5084234;28;20113;-92
2022/05/18 06:41:34;;;;;;;4.72;2.10;;;18.20;73.70;;;;;;5074004;28;20080;-91
2022/05/18 06:44:04;;;;;;;4.05;1.67;;;18.30;73.70;;;;;;5074175;28;20166;-93
2022/05/18 06:46:36;;;;;;;7.63;2.10;;;18.30;73.60;;;;;;5074601;28;20098;-92
2022/05/18 06:49:05;;;;;;;7.53;2.20;;;18.40;73.60;;;;;;5074052;28;20123;-93
2022/05/18 06:51:36;;;;;;;5.32;1.95;;;18.40;73.40;;;;;;5073565;28;20109;-93
2022/05/18 06:54:03;;;;;;;7.22;1.70;;;18.40;73.30;;;;;;5054442;28;20048;-92
2022/05/18 06:56:34;;;;;;;5.30;1.75;;;18.40;73.20;;;;;;5092642;28;20399;-91
2022/05/18 06:59:02;;;;;;;4.68;1.90;;;18.40;73.20;;;;;;5076834;28;20051;-90
2022/05/18 07:01:29;;;;;;;4.20;1.58;;;18.50;73.10;;;;;;5071088;28;20052;-91
2022/05/18 07:03:57;;;;;;;4.85;1.70;;;18.50;73.00;;;;;;5079199;28;20494;-91
2022/05/18 07:06:30;;;;;;;3.72;1.50;;;18.50;72.90;;;;;;5070991;28;20044;-91
2022/05/18 07:08:58;;;;;;;6.03;1.70;;;18.60;72.80;;;;;;5069737;28;20118;-92
2022/05/18 07:11:25;;;;;;;4.97;1.60;;;18.60;72.70;;;;;;5072824;28;20048;-93
2022/05/18 07:13:54;;;;;;;6.40;1.90;;;18.60;72.70;;;;;;5073102;28;20106;-92
2022/05/18 07:16:22;;;;;;;3.75;1.60;;;18.70;72.60;;;;;;5072994;28;20040;-94
2022/05/18 07:18:50;;;;;;;4.95;1.50;;;18.70;72.50;;;;;;5072851;28;20422;-93
2022/05/18 07:21:17;;;;;;;3.80;1.50;;;18.80;72.40;;;;;;5072034;28;20445;-94
2022/05/18 07:23:44;;;;;;;4.68;1.55;;;18.80;72.20;;;;;;5071199;28;20044;-94
2022/05/18 07:26:11;;;;;;;6.20;1.60;;;18.80;72.10;;;;;;5053399;28;20103;-93
2022/05/18 07:28:39;;;;;;;5.57;2.40;;;18.90;72.00;;;;;;5070946;28;20056;-93
2022/05/18 07:31:07;;;;;;;6.35;1.50;;;18.90;71.90;;;;;;5059691;28;20045;-95
2022/05/18 07:33:54;;;;;;;4.63;1.30;;;18.90;71.90;;;;;;5064714;28;20082;-95
2022/05/18 07:36:21;;;;;;;6.88;1.90;;;18.90;71.70;;;;;;5072617;28;20113;-95
2022/05/18 07:38:48;;;;;;;6.63;1.50;;;19.00;71.60;;;;;;5071505;28;20041;-93
2022/05/18 07:41:16;;;;;;;4.60;1.13;;;19.00;71.50;;;;;;5073095;28;20070;-94
2022/05/18 07:43:43;;;;;;;5.40;1.50;;;19.10;71.40;;;;;;5076092;28;20056;-95
2022/05/18 07:46:11;;;;;;;4.60;1.50;;;19.10;71.30;;;;;;5080931;28;20048;-94
2022/05/18 07:48:39;;;;;;;5.57;1.42;;;19.20;71.20;;;;;;5079320;28;20055;-94
2022/05/18 07:51:07;;;;;;;4.70;1.20;;;19.30;71.00;;;;;;5087933;28;20049;-93
2022/05/18 07:53:34;;;;;;;4.60;1.20;;;19.30;70.90;;;;;;5072101;28;20094;-94
2022/05/18 07:56:01;;;;;;;4.00;1.30;;;19.30;70.70;;;;;;5072518;28;20495;-95
2022/05/18 07:58:29;;;;;;;3.63;1.25;;;19.30;70.60;;;;;;5072303;28;20414;-93
2022/05/18 08:00:56;;;;;;;5.78;1.38;;;19.40;70.50;;;;;;5072106;28;20472;-93
2022/05/18 08:03:23;;;;;;;4.15;1.10;;;19.40;70.40;;;;;;5072067;28;20052;-93
2022/05/18 08:05:50;;;;;;;3.92;1.20;;;19.50;70.30;;;;;;5071461;28;20106;-93
2022/05/18 08:08:22;;;;;;;3.03;1.00;;;19.60;70.20;;;;;;5091871;28;20056;-93
2022/05/18 08:16:21;;;;;;;5.38;1.25;;;19.70;69.70;;;;;;5062258;28;20061;-94
2022/05/18 08:18:49;;;;;;;2.72;1.05;;;19.80;69.60;;;;;;5065767;28;20075;-94
2022/05/18 08:21:17;;;;;;;5.28;1.20;;;19.90;69.40;;;;;;5084859;28;20487;-93
2022/05/18 08:23:45;;;;;;;4.70;0.98;;;19.90;69.30;;;;;;5089911;28;20055;-93
2022/05/18 08:26:12;;;;;;;4.85;1.30;;;20.00;69.20;;;;;;5076278;28;20107;-93
2022/05/18 08:28:40;;;;;;;4.13;0.95;;;20.10;69.00;;;;;;5068018;28;20065;-93
2022/05/18 08:31:07;;;;;;;3.92;1.08;;;20.10;68.90;;;;;;5053204;28;20053;-92
2022/05/18 08:33:34;;;;;;;3.22;1.00;;;20.20;68.60;;;;;;5077459;28;20139;-92
2022/05/18 08:36:07;;;;;;;3.20;0.90;;;20.30;68.40;;;;;;5124956;27;20049;-93
2022/05/18 08:38:35;;;;;;;4.00;0.90;;;20.40;68.00;;;;;;5090496;28;20494;-94
2022/05/18 08:41:32;;;;;;;2.67;0.85;;;20.40;67.80;;;;;;5071641;28;20057;-93
2022/05/18 08:44:05;;;;;;;3.97;1.10;;;20.50;67.60;;;;;;5055223;28;20053;-93
2022/05/18 08:46:53;;;;;;;2.67;0.90;;;20.50;67.40;;;;;;5071918;28;20229;-94
2022/05/18 08:49:34;;;;;;;7.65;1.10;;;20.60;67.00;;;;;;5078671;28;20044;-95
2022/05/18 08:52:29;;;;;;;2.72;0.82;;;20.70;66.80;;;;;;5066731;28;20049;-93
2022/05/18 08:54:56;;;;;;;3.13;1.17;;;20.80;66.60;;;;;;5071119;28;20052;-93
2022/05/18 08:57:58;;;;;;;2.53;0.82;;;20.80;66.50;;;;;;5071151;28;20053;-94
2022/05/18 09:00:35;;;;;;;3.15;0.95;;;20.90;66.20;;;;;;5010137;28;20046;-94
2022/05/18 09:03:11;;;;;;;4.05;0.90;;;21.00;65.90;;;;;;4997167;28;20107;-92
2022/05/18 09:06:04;;;;;;;2.95;1.10;;;21.10;65.60;;;;;;4997957;28;20058;-93
2022/05/18 09:08:40;;;;;;;5.07;1.10;;;21.20;65.30;;;;;;4998075;28;20065;-95
2022/05/18 09:11:08;;;;;;;3.33;0.95;;;21.30;65.00;;;;;;5025986;28;20049;-95
2022/05/18 09:13:38;;;;;;;2.42;0.90;;;21.40;64.90;;;;;;5000564;28;20057;-94
2022/05/18 09:16:10;;;;;;;3.80;0.90;;;21.40;64.70;;;;;;5010512;28;20540;-94
2022/05/18 09:18:52;;;;;;;1.67;0.70;;;21.50;64.50;;;;;;5006967;28;20516;-93
2022/05/18 09:21:38;;;;;;;2.05;0.90;;;21.60;64.30;;;;;;5010429;28;20290;-95
2022/05/18 09:24:22;;;;;;;2.90;0.82;;;21.60;64.10;;;;;;4982211;28;20093;-94
2022/05/18 09:27:03;;;;;;;4.28;0.93;;;21.80;63.90;;;;;;5029064;28;20057;-94
2022/05/18 09:29:44;;;;;;;3.05;1.00;;;21.90;63.70;;;;;;4994123;28;20058;-94
2022/05/18 09:32:43;;;;;;;4.18;0.90;;;21.90;63.50;;;;;;5046382;28;20093;-96
2022/05/18 09:35:16;;;;;;;2.88;0.90;;;22.00;63.30;;;;;;4989801;28;20062;-94
2022/05/18 09:38:03;;;;;;;2.17;0.80;;;22.10;63.20;;;;;;5058250;28;20060;-94
2022/05/18 09:40:42;;;;;;;4.63;0.90;;;22.10;62.90;;;;;;5083021;28;20082;-94
2022/05/18 09:43:36;;;;;;;3.40;0.90;;;22.30;62.70;;;;;;5076857;28;20132;-93
2022/05/18 09:46:07;;;;;;;2.15;0.98;;;22.30;62.50;;;;;;5066931;28;20049;-94
2022/05/18 09:48:49;;;;;;;2.05;0.60;;;22.40;62.30;;;;;;5061972;28;20491;-93
2022/05/18 09:51:17;;;;;;;3.08;0.88;;;22.50;62.10;;;;;;5084136;28;20045;-95
2022/05/18 09:53:44;;;;;;;3.10;0.90;;;22.50;61.90;;;;;;5054953;28;20057;-95
2022/05/18 09:56:16;;;;;;;3.75;1.08;;;22.60;61.80;;;;;;5074854;28;20055;-94
2022/05/18 09:58:47;;;;;;;3.75;1.00;;;22.60;61.60;;;;;;5074158;28;20056;-95
2022/05/18 10:10:13;;;;;;;3.28;1.02;;;22.90;61.00;;;;;;5065751;28;20060;-95
2022/05/18 10:12:46;;;;;;;3.70;0.90;;;23.00;60.80;;;;;;5069407;28;20053;-94
2022/05/18 10:15:25;;;;;;;2.23;0.80;;;23.10;60.70;;;;;;5057911;28;20057;-94
2022/05/18 10:17:59;;;;;;;2.10;0.80;;;23.20;60.50;;;;;;5090106;28;20295;-94
2022/05/18 10:20:28;;;;;;;;;;;23.20;60.40;;;;;;5073888;28;20060;-94
2022/05/18 10:22:57;;;;;;;2.63;0.82;;;23.30;60.20;;;;;;5088883;28;19965;-95
2022/05/18 10:25:48;;;;;;;3.75;0.90;;;23.40;60.10;;;;;;5078385;28;20048;-94
2022/05/18 10:28:25;;;;;;;2.90;0.93;;;23.40;60.00;;;;;;5072648;28;20053;-95
2022/05/18 10:31:04;;;;;;;3.25;0.95;;;23.50;59.80;;;;;;5069181;28;20061;-95
2022/05/18 10:33:40;;;;;;;6.78;0.90;;;23.60;59.60;;;;;;5064426;28;20063;-95
2022/05/18 10:36:29;;;;;;;2.22;0.80;;;23.60;59.40;;;;;;5056366;28;20056;-95
2022/05/18 10:39:02;;;;;;;3.17;0.85;;;23.70;59.30;;;;;;5073034;28;20048;-95
2022/05/18 10:41:41;;;;;;;3.08;0.80;;;23.80;59.20;;;;;;5053254;28;20049;-94
2022/05/18 10:44:20;;;;;;;2.33;0.73;;;23.90;59.10;;;;;;5087315;28;20056;-95
2022/05/18 10:46:49;;;;;;;3.88;0.95;;;23.90;58.90;;;;;;5086793;28;20055;-95
2022/05/18 10:49:28;;;;;;;4.00;0.95;;;24.00;58.80;;;;;;5078226;28;20063;-94
2022/05/18 10:52:27;;;;;;;3.03;0.90;;;24.10;58.70;;;;;;5072694;28;20052;-95
2022/05/18 10:55:01;;;;;;;2.78;0.93;;;24.10;58.60;;;;;;5075807;28;20097;-94
2022/05/18 10:57:33;;;;;;;2.35;0.90;;;24.20;58.50;;;;;;5072084;28;20063;-94
2022/05/18 11:00:12;;;;;;;2.53;0.95;;;24.30;58.40;;;;;;5068216;28;20457;-95
2022/05/18 11:02:55;;;;;;;2.75;1.10;;;24.30;58.20;;;;;;5052243;28;20068;-94
2022/05/18 11:05:40;;;;;;;3.17;1.10;;;24.40;58.10;;;;;;5091442;28;20565;-94
2022/05/18 11:08:15;;;;;;;3.58;1.02;;;24.50;58.00;;;;;;5073799;28;20052;-95
2022/05/18 11:10:48;;;;;;;1.92;0.82;;;24.60;57.80;;;;;;5080083;28;20052;-95
2022/05/18 11:13:27;;;;;;;3.55;1.00;;;24.60;57.70;;;;;;5069326;28;20060;-94
2022/05/18 11:16:07;;;;;;;3.38;0.90;;;24.70;57.50;;;;;;5053697;28;20099;-94
2022/05/18 11:18:55;;;;;;;3.28;0.90;;;24.80;57.40;;;;;;5065650;28;20052;-96
2022/05/18 11:21:35;;;;;;;4.20;1.10;;;24.90;57.20;;;;;;5086418;28;20045;-95
2022/05/18 11:24:51;;;;;;;2.03;0.77;;;24.90;57.10;;;;;;5053579;28;20049;-96
2022/05/18 11:27:58;;;;;;;3.05;0.80;;;25.00;57.00;;;;;;5054785;28;20049;-95
2022/05/18 11:31:02;;;;;;;2.30;0.90;;;25.10;56.90;;;;;;5069310;28;20057;-95
2022/05/18 11:33:51;;;;;;;3.42;0.90;;;25.20;56.80;;;;;;5104461;22;20359;-96
2022/05/18 11:36:18;;;;;;;2.25;0.80;;;25.20;56.70;;;;;;5073106;28;20044;-94
2022/05/18 11:39:07;;;;;;;3.08;1.20;;;25.30;56.60;;;;;;5069716;28;20056;-95
2022/05/18 11:42:15;;;;;;;3.22;1.20;;;25.40;56.50;;;;;;5054634;28;20053;-95
2022/05/18 11:45:21;;;;;;;2.72;1.00;;;25.40;56.40;;;;;;5056213;28;20102;-95
2022/05/18 11:48:01;;;;;;;3.33;1.25;;;25.50;56.30;;;;;;5055936;28;20053;-95
2022/05/18 11:50:41;;;;;;;2.40;0.90;;;25.50;56.20;;;;;;5198488;22;20359;-96
2022/05/18 11:53:56;;;;;;;3.20;0.90;;;25.60;56.10;;;;;;5081446;28;20052;-96
2022/05/18 11:56:27;;;;;;;;;;;25.60;56.00;;;;;;5037537;28;20122;-96
2022/05/18 11:59:40;;;;;;;3.25;1.02;;;25.70;56.00;;;;;;5069173;28;19920;-95
2022/05/18 12:02:25;;;;;;;3.10;0.90;;;25.80;55.90;;;;;;5077260;28;20067;-96
2022/05/18 12:05:27;;;;;;;2.13;0.88;;;25.80;55.80;;;;;;5071417;28;20890;-96
2022/05/18 12:08:27;;;;;;;5.70;1.48;;;25.90;55.70;;;;;;5073662;28;20052;-94
2022/05/18 12:11:16;;;;;;;3.50;1.13;;;25.90;55.70;;;;;;5079745;28;20083;-96
2022/05/18 12:14:07;;;;;;;2.97;0.90;;;25.90;55.60;;;;;;5076430;28;20414;-95
2022/05/18 12:17:12;;;;;;;2.38;0.88;;;26.00;55.50;;;;;;5061471;28;20060;-95
2022/05/18 12:20:05;;;;;;;1.58;0.82;;;26.00;55.30;;;;;;5073901;28;20052;-95
2022/05/18 12:22:56;;;;;;;2.80;1.02;;;26.10;55.10;;;;;;5067217;28;20041;-95
2022/05/18 12:25:25;;;;;;;2.90;0.80;;;26.10;55.00;;;;;;5083658;28;20042;-94
2022/05/18 12:27:55;;;;;;;2.65;1.00;;;26.20;54.80;;;;;;5071251;28;20045;-95
2022/05/18 12:30:25;;;;;;;2.28;0.98;;;26.20;54.80;;;;;;5061563;28;20048;-95
2022/05/18 12:32:54;;;;;;;5.05;1.20;;;26.20;54.70;;;;;;5068410;28;20060;-96
2022/05/18 12:36:04;;;;;;;2.95;1.13;;;26.30;54.70;;;;;;5075969;28;20529;-94
2022/05/18 12:38:53;;;;;;;2.83;0.90;;;26.30;54.60;;;;;;5055874;28;20053;-95
2022/05/18 12:41:26;;;;;;;3.53;1.00;;;26.40;54.50;;;;;;5055190;28;20090;-93
2022/05/18 12:44:34;;;;;;;2.17;0.90;;;26.40;54.40;;;;;;5055109;28;20052;-94
2022/05/18 12:47:09;;;;;;;7.97;1.20;;;26.50;54.30;;;;;;5056596;28;20049;-94
2022/05/18 12:49:42;;;;;;;3.05;0.90;;;26.50;54.20;;;;;;5056783;28;20053;-96
2022/05/18 12:52:17;;;;;;;4.63;1.35;;;26.60;54.10;;;;;;5068468;28;20056;-94
2022/05/18 12:54:53;;;;;;;4.60;1.00;;;26.60;54.10;;;;;;5065100;28;20048;-96
2022/05/18 12:57:41;;;;;;;3.00;0.82;;;26.70;54.00;;;;;;5061806;28;20083;-95
2022/05/18 13:00:08;;;;;;;3.88;0.98;;;26.80;53.80;;;;;;5071602;28;20064;-94
2022/05/18 13:02:38;;;;;;;2.17;0.80;;;26.80;53.70;;;;;;5054959;28;20507;-95
2022/05/18 13:05:29;;;;;;;2.22;0.90;;;26.90;53.60;;;;;;5056422;28;20080;-94
2022/05/18 13:08:23;;;;;;;2.95;1.00;;;26.90;53.50;;;;;;5073226;28;20052;-95
2022/05/18 13:11:35;;;;;;;5.60;1.15;;;27.00;53.40;;;;;;5057080;28;20049;-95
2022/05/18 13:14:31;;;;;;;2.15;0.70;;;27.10;53.30;;;;;;4995011;28;20090;-95
2022/05/18 13:17:03;;;;;;;2.90;1.02;;;27.20;53.10;;;;;;5014854;28;20144;-96
2022/05/18 13:19:33;;;;;;;2.75;0.90;;;27.20;53.00;;;;;;4996471;28;20054;-95
2022/05/18 13:22:09;;;;;;;2.47;0.77;;;27.30;52.90;;;;;;5013824;28;20050;-95
2022/05/18 13:24:49;;;;;;;3.65;0.82;;;27.30;52.80;;;;;;5009154;28;20057;-94
2022/05/18 13:27:28;;;;;;;4.53;1.10;;;27.40;52.70;;;;;;5012931;28;20061;-94
2022/05/18 13:29:58;;;;;;;2.90;0.90;;;27.40;52.60;;;;;;4996418;28;20524;-94
2022/05/18 13:32:28;;;;;;;2.40;0.90;;;27.50;52.50;;;;;;4997522;28;20132;-93
2022/05/18 13:35:19;;;;;;;4.38;1.00;;;27.50;52.40;;;;;;5013099;28;20054;-93
2022/05/18 13:38:10;;;;;;;3.85;0.82;;;27.60;52.30;;;;;;5012867;28;20480;-94
2022/05/18 13:40:44;;;;;;;3.05;0.88;;;27.60;52.10;;;;;;5009740;28;20524;-94